sensor_id;sensor_type;location;lat;lon;timestamp;P1;durP1;ratioP1;P2;durP2;ratioP2
53521;SDS011;39398;48.382;9.802;2023-04-28T00:03:37;6.22;;;4.40;;
53521;SDS011;39398;48.382;9.802;2023-04-28T00:08:39;11.75;;;4.45;;
53521;SDS011;39398;48.382;9.802;2023-04-28T00:13:41;7.60;;;4.05;;
53521;SDS011;39398;48.382;9.802;2023-04-28T00:18:46;5.97;;;4.18;;
53521;SDS011;39398;48.382;9.802;2023-04-28T00:23:48;5.47;;;4.22;;
53521;SDS011;39398;48.382;9.802;2023-04-28T00:34:53;6.40;;;3.90;;
53521;SDS011;39398;48.382;9.802;2023-04-28T00:39:55;8.65;;;4.20;;
53521;SDS011;39398;48.382;9.802;2023-04-28T00:44:57;8.07;;;4.00;;
53521;SDS011;39398;48.382;9.802;2023-04-28T00:50:00;7.00;;;4.07;;
53521;SDS011;39398;48.382;9.802;2023-04-28T00:55:02;7.55;;;3.88;;
53521;SDS011;39398;48.382;9.802;2023-04-28T01:00:06;5.38;;;4.40;;
53521;SDS011;39398;48.382;9.802;2023-04-28T01:05:11;8.93;;;4.47;;
53521;SDS011;39398;48.382;9.802;2023-04-28T01:10:15;10.38;;;4.72;;
53521;SDS011;39398;48.382;9.802;2023-04-28T01:15:17;5.68;;;4.25;;
53521;SDS011;39398;48.382;9.802;2023-04-28T01:20:21;5.90;;;4.13;;
53521;SDS011;39398;48.382;9.802;2023-04-28T01:25:24;6.75;;;4.85;;
53521;SDS011;39398;48.382;9.802;2023-04-28T01:30:26;8.55;;;4.35;;
53521;SDS011;39398;48.382;9.802;2023-04-28T01:35:30;8.55;;;4.65;;
53521;SDS011;39398;48.382;9.802;2023-04-28T01:40:33;6.90;;;4.47;;
53521;SDS011;39398;48.382;9.802;2023-04-28T01:45:35;4.90;;;4.32;;
53521;SDS011;39398;48.382;9.802;2023-04-28T01:50:37;6.78;;;4.50;;
53521;SDS011;39398;48.382;9.802;2023-04-28T01:55:40;7.00;;;4.88;;
53521;SDS011;39398;48.382;9.802;2023-04-28T02:00:55;6.28;;;4.85;;
53521;SDS011;39398;48.382;9.802;2023-04-28T02:05:59;6.50;;;4.85;;
53521;SDS011;39398;48.382;9.802;2023-04-28T02:11:04;7.93;;;5.30;;
53521;SDS011;39398;48.382;9.802;2023-04-28T02:16:06;9.02;;;5.20;;
53521;SDS011;39398;48.382;9.802;2023-04-28T02:21:08;9.55;;;5.43;;
53521;SDS011;39398;48.382;9.802;2023-04-28T02:26:12;9.60;;;5.72;;
53521;SDS011;39398;48.382;9.802;2023-04-28T02:31:16;6.32;;;4.97;;
53521;SDS011;39398;48.382;9.802;2023-04-28T02:36:18;8.23;;;4.82;;
53521;SDS011;39398;48.382;9.802;2023-04-28T02:41:21;6.47;;;4.50;;
53521;SDS011;39398;48.382;9.802;2023-04-28T02:46:22;11.38;;;5.22;;
53521;SDS011;39398;48.382;9.802;2023-04-28T02:51:24;9.82;;;5.50;;
53521;SDS011;39398;48.382;9.802;2023-04-28T02:56:27;8.38;;;6.03;;
53521;SDS011;39398;48.382;9.802;2023-04-28T03:01:29;10.43;;;6.10;;
53521;SDS011;39398;48.382;9.802;2023-04-28T03:06:30;8.65;;;6.10;;
53521;SDS011;39398;48.382;9.802;2023-04-28T03:11:33;12.50;;;6.07;;
53521;SDS011;39398;48.382;9.802;2023-04-28T03:16:35;9.02;;;6.15;;
53521;SDS011;39398;48.382;9.802;2023-04-28T03:21:38;8.73;;;5.80;;
53521;SDS011;39398;48.382;9.802;2023-04-28T03:26:44;10.57;;;5.18;;
53521;SDS011;39398;48.382;9.802;2023-04-28T03:31:45;8.60;;;6.00;;
53521;SDS011;39398;48.382;9.802;2023-04-28T03:36:49;10.02;;;6.28;;
53521;SDS011;39398;48.382;9.802;2023-04-28T03:41:54;9.65;;;6.47;;
53521;SDS011;39398;48.382;9.802;2023-04-28T03:46:56;9.45;;;6.80;;
53521;SDS011;39398;48.382;9.802;2023-04-28T03:51:58;14.70;;;11.32;;
53521;SDS011;39398;48.382;9.802;2023-04-28T03:57:01;16.05;;;9.32;;
53521;SDS011;39398;48.382;9.802;2023-04-28T04:02:02;10.13;;;7.07;;
53521;SDS011;39398;48.382;9.802;2023-04-28T04:07:04;10.70;;;6.63;;
53521;SDS011;39398;48.382;9.802;2023-04-28T04:12:08;10.10;;;7.00;;
53521;SDS011;39398;48.382;9.802;2023-04-28T04:17:10;40.00;;;23.88;;
53521;SDS011;39398;48.382;9.802;2023-04-28T04:22:11;12.98;;;7.45;;
53521;SDS011;39398;48.382;9.802;2023-04-28T04:27:17;21.35;;;13.32;;
53521;SDS011;39398;48.382;9.802;2023-04-28T04:32:19;20.02;;;12.38;;
53521;SDS011;39398;48.382;9.802;2023-04-28T04:37:20;26.33;;;17.02;;
53521;SDS011;39398;48.382;9.802;2023-04-28T04:42:26;23.15;;;14.73;;
53521;SDS011;39398;48.382;9.802;2023-04-28T04:47:27;17.75;;;11.75;;
53521;SDS011;39398;48.382;9.802;2023-04-28T04:52:29;18.75;;;12.27;;
53521;SDS011;39398;48.382;9.802;2023-04-28T04:57:32;20.73;;;12.18;;
53521;SDS011;39398;48.382;9.802;2023-04-28T05:02:34;18.52;;;12.20;;
53521;SDS011;39398;48.382;9.802;2023-04-28T05:07:36;19.80;;;12.57;;
53521;SDS011;39398;48.382;9.802;2023-04-28T05:12:39;19.73;;;11.05;;
53521;SDS011;39398;48.382;9.802;2023-04-28T05:17:41;16.55;;;10.52;;
53521;SDS011;39398;48.382;9.802;2023-04-28T05:22:42;19.20;;;11.38;;
53521;SDS011;39398;48.382;9.802;2023-04-28T05:27:45;15.73;;;9.57;;
53521;SDS011;39398;48.382;9.802;2023-04-28T05:32:47;18.15;;;10.88;;
53521;SDS011;39398;48.382;9.802;2023-04-28T05:37:50;16.73;;;10.15;;
53521;SDS011;39398;48.382;9.802;2023-04-28T05:42:53;19.77;;;13.85;;
53521;SDS011;39398;48.382;9.802;2023-04-28T05:47:55;16.55;;;10.98;;
53521;SDS011;39398;48.382;9.802;2023-04-28T05:52:57;15.52;;;10.75;;
53521;SDS011;39398;48.382;9.802;2023-04-28T05:58:02;16.60;;;10.90;;
53521;SDS011;39398;48.382;9.802;2023-04-28T06:03:04;15.73;;;10.15;;
53521;SDS011;39398;48.382;9.802;2023-04-28T06:08:08;17.50;;;9.77;;
53521;SDS011;39398;48.382;9.802;2023-04-28T06:13:11;20.90;;;11.27;;
53521;SDS011;39398;48.382;9.802;2023-04-28T06:18:19;30.98;;;21.10;;
53521;SDS011;39398;48.382;9.802;2023-04-28T06:23:21;12.00;;;8.77;;
53521;SDS011;39398;48.382;9.802;2023-04-28T06:28:25;12.60;;;8.35;;
53521;SDS011;39398;48.382;9.802;2023-04-28T06:33:26;10.77;;;8.25;;
53521;SDS011;39398;48.382;9.802;2023-04-28T06:38:30;18.88;;;9.43;;
53521;SDS011;39398;48.382;9.802;2023-04-28T06:43:33;56.05;;;10.07;;
53521;SDS011;39398;48.382;9.802;2023-04-28T06:48:36;29.35;;;19.58;;
53521;SDS011;39398;48.382;9.802;2023-04-28T06:53:40;14.52;;;8.80;;
53521;SDS011;39398;48.382;9.802;2023-04-28T06:58:45;37.03;;;10.80;;
53521;SDS011;39398;48.382;9.802;2023-04-28T07:03:46;89.85;;;12.00;;
53521;SDS011;39398;48.382;9.802;2023-04-28T07:08:50;420.13;;;25.10;;
53521;SDS011;39398;48.382;9.802;2023-04-28T07:13:52;70.22;;;10.40;;
53521;SDS011;39398;48.382;9.802;2023-04-28T07:18:54;124.63;;;14.10;;
53521;SDS011;39398;48.382;9.802;2023-04-28T07:23:56;81.72;;;11.15;;
53521;SDS011;39398;48.382;9.802;2023-04-28T07:29:02;56.20;;;9.32;;
53521;SDS011;39398;48.382;9.802;2023-04-28T07:34:03;10.18;;;6.53;;
53521;SDS011;39398;48.382;9.802;2023-04-28T07:39:06;6.47;;;5.07;;
53521;SDS011;39398;48.382;9.802;2023-04-28T07:44:12;7.65;;;5.40;;
53521;SDS011;39398;48.382;9.802;2023-04-28T07:49:16;5.88;;;4.57;;
53521;SDS011;39398;48.382;9.802;2023-04-28T07:54:18;72.50;;;7.80;;
53521;SDS011;39398;48.382;9.802;2023-04-28T07:59:21;157.32;;;11.38;;
53521;SDS011;39398;48.382;9.802;2023-04-28T08:04:23;142.63;;;15.65;;
53521;SDS011;39398;48.382;9.802;2023-04-28T08:09:28;76.55;;;8.73;;
53521;SDS011;39398;48.382;9.802;2023-04-28T08:14:31;56.10;;;8.85;;
53521;SDS011;39398;48.382;9.802;2023-04-28T08:19:35;7.13;;;5.63;;
53521;SDS011;39398;48.382;9.802;2023-04-28T08:24:36;7.18;;;5.72;;
53521;SDS011;39398;48.382;9.802;2023-04-28T08:29:39;7.63;;;5.85;;
53521;SDS011;39398;48.382;9.802;2023-04-28T08:34:41;8.63;;;6.57;;
53521;SDS011;39398;48.382;9.802;2023-04-28T08:39:43;8.50;;;6.97;;
53521;SDS011;39398;48.382;9.802;2023-04-28T08:44:46;11.27;;;7.32;;
53521;SDS011;39398;48.382;9.802;2023-04-28T08:49:49;9.70;;;7.18;;
53521;SDS011;39398;48.382;9.802;2023-04-28T08:54:54;9.38;;;6.80;;
53521;SDS011;39398;48.382;9.802;2023-04-28T09:00:00;11.50;;;7.63;;
53521;SDS011;39398;48.382;9.802;2023-04-28T09:05:06;9.30;;;6.88;;
53521;SDS011;39398;48.382;9.802;2023-04-28T09:10:15;8.20;;;6.57;;
53521;SDS011;39398;48.382;9.802;2023-04-28T09:15:32;10.50;;;7.78;;
53521;SDS011;39398;48.382;9.802;2023-04-28T09:20:35;10.70;;;7.65;;
53521;SDS011;39398;48.382;9.802;2023-04-28T09:25:37;8.77;;;6.85;;
53521;SDS011;39398;48.382;9.802;2023-04-28T09:30:40;8.75;;;6.93;;
53521;SDS011;39398;48.382;9.802;2023-04-28T09:35:42;8.10;;;6.57;;
53521;SDS011;39398;48.382;9.802;2023-04-28T09:40:52;8.18;;;6.78;;
53521;SDS011;39398;48.382;9.802;2023-04-28T09:45:58;4.50;;;4.05;;
53521;SDS011;39398;48.382;9.802;2023-04-28T09:51:01;5.97;;;4.63;;
53521;SDS011;39398;48.382;9.802;2023-04-28T09:56:05;4.43;;;3.42;;
53521;SDS011;39398;48.382;9.802;2023-04-28T10:01:11;3.60;;;3.20;;
53521;SDS011;39398;48.382;9.802;2023-04-28T10:06:13;4.38;;;2.47;;
53521;SDS011;39398;48.382;9.802;2023-04-28T10:11:16;6.10;;;4.63;;
53521;SDS011;39398;48.382;9.802;2023-04-28T10:16:19;3.40;;;1.80;;
53521;SDS011;39398;48.382;9.802;2023-04-28T10:21:23;1.75;;;1.65;;
53521;SDS011;39398;48.382;9.802;2023-04-28T10:43:10;6.20;;;4.90;;
53521;SDS011;39398;48.382;9.802;2023-04-28T10:48:14;1.48;;;1.38;;
53521;SDS011;39398;48.382;9.802;2023-04-28T10:53:17;1.85;;;1.75;;
53521;SDS011;39398;48.382;9.802;2023-04-28T10:58:31;2.30;;;2.08;;
53521;SDS011;39398;48.382;9.802;2023-04-28T11:03:41;2.50;;;2.30;;
53521;SDS011;39398;48.382;9.802;2023-04-28T11:08:50;2.50;;;2.30;;
53521;SDS011;39398;48.382;9.802;2023-04-28T11:13:55;4.20;;;2.35;;
53521;SDS011;39398;48.382;9.802;2023-04-28T11:19:22;2.83;;;2.03;;
53521;SDS011;39398;48.382;9.802;2023-04-28T11:24:26;2.30;;;2.10;;
53521;SDS011;39398;48.382;9.802;2023-04-28T11:29:31;2.50;;;2.30;;
53521;SDS011;39398;48.382;9.802;2023-04-28T11:34:35;2.22;;;2.13;;
53521;SDS011;39398;48.382;9.802;2023-04-28T11:39:40;2.80;;;2.60;;
53521;SDS011;39398;48.382;9.802;2023-04-28T11:44:47;3.15;;;2.85;;
53521;SDS011;39398;48.382;9.802;2023-04-28T11:49:51;2.90;;;2.70;;
53521;SDS011;39398;48.382;9.802;2023-04-28T11:54:53;3.30;;;3.00;;
53521;SDS011;39398;48.382;9.802;2023-04-28T12:00:10;4.15;;;3.53;;
53521;SDS011;39398;48.382;9.802;2023-04-28T12:05:14;4.05;;;3.70;;
53521;SDS011;39398;48.382;9.802;2023-04-28T12:10:16;4.32;;;3.42;;
53521;SDS011;39398;48.382;9.802;2023-04-28T12:15:17;4.25;;;3.85;;
53521;SDS011;39398;48.382;9.802;2023-04-28T12:25:43;11.20;;;8.35;;
53521;SDS011;39398;48.382;9.802;2023-04-28T12:30:47;4.78;;;4.32;;
53521;SDS011;39398;48.382;9.802;2023-04-28T12:35:50;4.47;;;4.07;;
53521;SDS011;39398;48.382;9.802;2023-04-28T12:40:59;4.90;;;4.18;;
53521;SDS011;39398;48.382;9.802;2023-04-28T12:46:03;5.10;;;3.80;;
53521;SDS011;39398;48.382;9.802;2023-04-28T12:51:06;3.03;;;2.80;;
53521;SDS011;39398;48.382;9.802;2023-04-28T12:56:08;3.25;;;2.95;;
53521;SDS011;39398;48.382;9.802;2023-04-28T13:01:17;6.47;;;4.72;;
53521;SDS011;39398;48.382;9.802;2023-04-28T13:06:20;4.22;;;3.80;;
53521;SDS011;39398;48.382;9.802;2023-04-28T13:11:22;4.75;;;4.07;;
53521;SDS011;39398;48.382;9.802;2023-04-28T13:16:23;4.55;;;4.15;;
53521;SDS011;39398;48.382;9.802;2023-04-28T13:21:26;4.78;;;4.35;;
53521;SDS011;39398;48.382;9.802;2023-04-28T13:26:28;3.88;;;3.53;;
53521;SDS011;39398;48.382;9.802;2023-04-28T13:31:30;3.92;;;3.60;;
53521;SDS011;39398;48.382;9.802;2023-04-28T13:36:35;4.10;;;3.70;;
53521;SDS011;39398;48.382;9.802;2023-04-28T13:41:37;6.32;;;5.45;;
53521;SDS011;39398;48.382;9.802;2023-04-28T13:46:41;5.95;;;5.05;;
53521;SDS011;39398;48.382;9.802;2023-04-28T13:51:46;6.65;;;4.82;;
53521;SDS011;39398;48.382;9.802;2023-04-28T13:56:50;4.75;;;4.30;;
53521;SDS011;39398;48.382;9.802;2023-04-28T14:01:53;3.88;;;3.40;;
53521;SDS011;39398;48.382;9.802;2023-04-28T14:06:57;4.35;;;4.05;;
53521;SDS011;39398;48.382;9.802;2023-04-28T14:11:59;6.60;;;5.63;;
53521;SDS011;39398;48.382;9.802;2023-04-28T14:17:03;11.15;;;6.85;;
53521;SDS011;39398;48.382;9.802;2023-04-28T14:22:06;5.57;;;4.90;;
53521;SDS011;39398;48.382;9.802;2023-04-28T14:27:08;6.50;;;5.90;;
53521;SDS011;39398;48.382;9.802;2023-04-28T14:32:09;5.45;;;4.95;;
53521;SDS011;39398;48.382;9.802;2023-04-28T14:37:12;5.80;;;5.30;;
53521;SDS011;39398;48.382;9.802;2023-04-28T14:42:14;5.28;;;4.78;;
53521;SDS011;39398;48.382;9.802;2023-04-28T14:47:18;5.80;;;5.20;;
53521;SDS011;39398;48.382;9.802;2023-04-28T14:52:21;8.57;;;6.93;;
53521;SDS011;39398;48.382;9.802;2023-04-28T14:57:23;8.60;;;7.70;;
53521;SDS011;39398;48.382;9.802;2023-04-28T15:02:25;12.32;;;8.82;;
53521;SDS011;39398;48.382;9.802;2023-04-28T15:07:29;12.13;;;9.68;;
53521;SDS011;39398;48.382;9.802;2023-04-28T15:12:32;15.23;;;10.98;;
53521;SDS011;39398;48.382;9.802;2023-04-28T15:17:36;15.52;;;9.13;;
53521;SDS011;39398;48.382;9.802;2023-04-28T15:22:39;11.38;;;8.75;;
53521;SDS011;39398;48.382;9.802;2023-04-28T15:27:48;15.35;;;11.52;;
53521;SDS011;39398;48.382;9.802;2023-04-28T15:32:49;9.45;;;6.88;;
53521;SDS011;39398;48.382;9.802;2023-04-28T15:37:52;14.20;;;6.88;;
53521;SDS011;39398;48.382;9.802;2023-04-28T15:42:54;7.50;;;5.80;;
53521;SDS011;39398;48.382;9.802;2023-04-28T15:47:56;11.68;;;5.90;;
53521;SDS011;39398;48.382;9.802;2023-04-28T15:53:00;10.32;;;6.03;;
53521;SDS011;39398;48.382;9.802;2023-04-28T15:58:02;7.97;;;4.60;;
53521;SDS011;39398;48.382;9.802;2023-04-28T16:03:03;5.68;;;4.05;;
53521;SDS011;39398;48.382;9.802;2023-04-28T16:08:06;3.15;;;1.40;;
53521;SDS011;39398;48.382;9.802;2023-04-28T16:13:10;1.30;;;1.20;;
53521;SDS011;39398;48.382;9.802;2023-04-28T16:18:14;0.98;;;0.88;;
53521;SDS011;39398;48.382;9.802;2023-04-28T16:23:17;0.98;;;0.60;;
53521;SDS011;39398;48.382;9.802;2023-04-28T16:28:21;0.82;;;0.70;;
53521;SDS011;39398;48.382;9.802;2023-04-28T16:33:23;0.60;;;0.60;;
53521;SDS011;39398;48.382;9.802;2023-04-28T16:38:26;0.95;;;0.60;;
53521;SDS011;39398;48.382;9.802;2023-04-28T16:43:27;7.85;;;2.78;;
53521;SDS011;39398;48.382;9.802;2023-04-28T16:48:31;1.77;;;1.35;;
53521;SDS011;39398;48.382;9.802;2023-04-28T16:53:34;2.03;;;1.83;;
53521;SDS011;39398;48.382;9.802;2023-04-28T16:58:38;2.58;;;1.05;;
53521;SDS011;39398;48.382;9.802;2023-04-28T17:03:40;1.08;;;0.98;;
53521;SDS011;39398;48.382;9.802;2023-04-28T17:08:45;13.32;;;2.40;;
53521;SDS011;39398;48.382;9.802;2023-04-28T17:13:46;2.30;;;0.90;;
53521;SDS011;39398;48.382;9.802;2023-04-28T17:18:50;0.90;;;0.80;;
53521;SDS011;39398;48.382;9.802;2023-04-28T17:23:56;2.20;;;0.80;;
53521;SDS011;39398;48.382;9.802;2023-04-28T17:29:00;2.15;;;0.70;;
53521;SDS011;39398;48.382;9.802;2023-04-28T17:34:03;1.05;;;0.95;;
53521;SDS011;39398;48.382;9.802;2023-04-28T17:39:06;4.22;;;2.40;;
53521;SDS011;39398;48.382;9.802;2023-04-28T17:44:07;8.80;;;4.57;;
53521;SDS011;39398;48.382;9.802;2023-04-28T17:49:09;7.20;;;3.00;;
53521;SDS011;39398;48.382;9.802;2023-04-28T17:54:20;3.67;;;3.38;;
53521;SDS011;39398;48.382;9.802;2023-04-28T17:59:21;7.65;;;5.43;;
53521;SDS011;39398;48.382;9.802;2023-04-28T18:04:23;7.35;;;3.42;;
53521;SDS011;39398;48.382;9.802;2023-04-28T18:09:26;4.28;;;2.60;;
53521;SDS011;39398;48.382;9.802;2023-04-28T18:14:31;1.40;;;1.27;;
53521;SDS011;39398;48.382;9.802;2023-04-28T18:19:32;4.28;;;1.67;;
53521;SDS011;39398;48.382;9.802;2023-04-28T18:24:35;2.38;;;2.08;;
53521;SDS011;39398;48.382;9.802;2023-04-28T18:29:39;2.08;;;1.80;;
53521;SDS011;39398;48.382;9.802;2023-04-28T18:34:48;1.48;;;1.38;;
53521;SDS011;39398;48.382;9.802;2023-04-28T18:39:54;1.75;;;1.58;;
53521;SDS011;39398;48.382;9.802;2023-04-28T18:44:56;2.75;;;1.30;;
53521;SDS011;39398;48.382;9.802;2023-04-28T18:50:01;2.88;;;1.55;;
53521;SDS011;39398;48.382;9.802;2023-04-28T18:55:04;2.13;;;1.65;;
53521;SDS011;39398;48.382;9.802;2023-04-28T19:00:06;2.08;;;1.88;;
53521;SDS011;39398;48.382;9.802;2023-04-28T19:05:08;3.40;;;3.10;;
53521;SDS011;39398;48.382;9.802;2023-04-28T19:10:12;4.07;;;2.25;;
53521;SDS011;39398;48.382;9.802;2023-04-28T19:15:14;2.45;;;2.20;;
53521;SDS011;39398;48.382;9.802;2023-04-28T19:20:16;3.42;;;2.10;;
53521;SDS011;39398;48.382;9.802;2023-04-28T19:25:21;3.33;;;2.13;;
53521;SDS011;39398;48.382;9.802;2023-04-28T19:30:23;4.70;;;2.33;;
53521;SDS011;39398;48.382;9.802;2023-04-28T19:35:25;4.60;;;2.90;;
53521;SDS011;39398;48.382;9.802;2023-04-28T19:40:28;5.70;;;4.43;;
53521;SDS011;39398;48.382;9.802;2023-04-28T19:45:30;12.68;;;7.90;;
53521;SDS011;39398;48.382;9.802;2023-04-28T19:50:31;20.25;;;12.45;;
53521;SDS011;39398;48.382;9.802;2023-04-28T19:55:34;33.38;;;19.58;;
53521;SDS011;39398;48.382;9.802;2023-04-28T20:00:39;29.65;;;21.55;;
53521;SDS011;39398;48.382;9.802;2023-04-28T20:05:41;8.85;;;5.38;;
53521;SDS011;39398;48.382;9.802;2023-04-28T20:10:44;6.57;;;4.93;;
53521;SDS011;39398;48.382;9.802;2023-04-28T20:15:45;6.18;;;4.97;;
53521;SDS011;39398;48.382;9.802;2023-04-28T20:20:50;7.35;;;5.20;;
53521;SDS011;39398;48.382;9.802;2023-04-28T20:25:54;12.93;;;8.00;;
53521;SDS011;39398;48.382;9.802;2023-04-28T20:31:06;10.90;;;6.63;;
53521;SDS011;39398;48.382;9.802;2023-04-28T20:36:12;16.77;;;9.88;;
53521;SDS011;39398;48.382;9.802;2023-04-28T20:41:23;32.28;;;12.40;;
53521;SDS011;39398;48.382;9.802;2023-04-28T20:46:24;222.43;;;23.08;;
53521;SDS011;39398;48.382;9.802;2023-04-28T20:56:44;413.27;;;26.52;;
53521;SDS011;39398;48.382;9.802;2023-04-28T21:01:48;128.60;;;17.77;;
53521;SDS011;39398;48.382;9.802;2023-04-28T21:06:52;92.22;;;14.18;;
53521;SDS011;39398;48.382;9.802;2023-04-28T21:11:55;365.33;;;21.52;;
53521;SDS011;39398;48.382;9.802;2023-04-28T21:16:57;292.25;;;18.63;;
53521;SDS011;39398;48.382;9.802;2023-04-28T21:21:59;204.18;;;14.65;;
53521;SDS011;39398;48.382;9.802;2023-04-28T21:27:02;138.38;;;13.95;;
53521;SDS011;39398;48.382;9.802;2023-04-28T21:32:03;162.85;;;13.55;;
53521;SDS011;39398;48.382;9.802;2023-04-28T21:37:05;192.52;;;13.95;;
53521;SDS011;39398;48.382;9.802;2023-04-28T21:42:08;179.65;;;14.38;;
53521;SDS011;39398;48.382;9.802;2023-04-28T21:47:10;40.53;;;18.40;;
53521;SDS011;39398;48.382;9.802;2023-04-28T21:52:12;19.80;;;11.63;;
53521;SDS011;39398;48.382;9.802;2023-04-28T21:57:15;16.67;;;10.80;;
53521;SDS011;39398;48.382;9.802;2023-04-28T22:02:17;96.70;;;12.25;;
53521;SDS011;39398;48.382;9.802;2023-04-28T22:07:18;37.55;;;9.52;;
53521;SDS011;39398;48.382;9.802;2023-04-28T22:12:22;13.52;;;9.02;;
53521;SDS011;39398;48.382;9.802;2023-04-28T22:17:25;9.77;;;7.28;;
53521;SDS011;39398;48.382;9.802;2023-04-28T22:22:29;11.00;;;7.03;;
53521;SDS011;39398;48.382;9.802;2023-04-28T22:27:32;11.55;;;7.15;;
53521;SDS011;39398;48.382;9.802;2023-04-28T22:32:34;9.68;;;7.20;;
53521;SDS011;39398;48.382;9.802;2023-04-28T22:37:36;11.88;;;8.25;;
53521;SDS011;39398;48.382;9.802;2023-04-28T22:42:41;11.02;;;6.15;;
53521;SDS011;39398;48.382;9.802;2023-04-28T22:47:43;11.23;;;6.05;;
53521;SDS011;39398;48.382;9.802;2023-04-28T22:52:47;6.72;;;5.05;;
53521;SDS011;39398;48.382;9.802;2023-04-28T22:57:50;6.75;;;5.15;;
53521;SDS011;39398;48.382;9.802;2023-04-28T23:02:54;7.45;;;4.85;;
53521;SDS011;39398;48.382;9.802;2023-04-28T23:07:58;7.88;;;4.80;;
53521;SDS011;39398;48.382;9.802;2023-04-28T23:13:06;7.20;;;5.60;;
53521;SDS011;39398;48.382;9.802;2023-04-28T23:18:08;8.15;;;5.95;;
53521;SDS011;39398;48.382;9.802;2023-04-28T23:23:10;11.38;;;6.03;;
53521;SDS011;39398;48.382;9.802;2023-04-28T23:28:15;10.23;;;5.38;;
53521;SDS011;39398;48.382;9.802;2023-04-28T23:33:18;5.63;;;3.90;;
53521;SDS011;39398;48.382;9.802;2023-04-28T23:38:20;3.58;;;3.08;;
53521;SDS011;39398;48.382;9.802;2023-04-28T23:43:29;4.57;;;3.33;;
53521;SDS011;39398;48.382;9.802;2023-04-28T23:48:32;5.78;;;2.75;;
53521;SDS011;39398;48.382;9.802;2023-04-28T23:53:34;4.55;;;2.58;;
53521;SDS011;39398;48.382;9.802;2023-04-28T23:58:39;6.45;;;3.20;;
